sensor_id;sensor_type;location;lat;lon;timestamp;P1;durP1;ratioP1;P2;durP2;ratioP2
29214;SDS011;16252;49.816;7.964;2024-02-28T00:02:06;32.35;;;19.90;;
29214;SDS011;16252;49.816;7.964;2024-02-28T00:04:32;37.33;;;21.55;;
29214;SDS011;16252;49.816;7.964;2024-02-28T00:06:57;37.83;;;21.45;;
29214;SDS011;16252;49.816;7.964;2024-02-28T00:09:23;37.03;;;22.27;;
29214;SDS011;16252;49.816;7.964;2024-02-28T00:11:48;39.40;;;21.92;;
29214;SDS011;16252;49.816;7.964;2024-02-28T00:14:13;42.53;;;23.50;;
29214;SDS011;16252;49.816;7.964;2024-02-28T00:16:42;39.92;;;22.63;;
29214;SDS011;16252;49.816;7.964;2024-02-28T00:19:09;39.85;;;22.52;;
29214;SDS011;16252;49.816;7.964;2024-02-28T00:21:36;36.58;;;21.70;;
29214;SDS011;16252;49.816;7.964;2024-02-28T00:24:01;42.60;;;23.52;;
29214;SDS011;16252;49.816;7.964;2024-02-28T00:26:27;42.08;;;23.35;;
29214;SDS011;16252;49.816;7.964;2024-02-28T00:28:52;45.13;;;24.42;;
29214;SDS011;16252;49.816;7.964;2024-02-28T00:31:18;41.17;;;23.63;;
29214;SDS011;16252;49.816;7.964;2024-02-28T00:33:44;44.60;;;24.95;;
29214;SDS011;16252;49.816;7.964;2024-02-28T00:36:09;43.20;;;24.25;;
29214;SDS011;16252;49.816;7.964;2024-02-28T00:38:34;50.22;;;27.40;;
29214;SDS011;16252;49.816;7.964;2024-02-28T00:40:59;43.95;;;24.90;;
29214;SDS011;16252;49.816;7.964;2024-02-28T00:43:25;38.72;;;22.30;;
29214;SDS011;16252;49.816;7.964;2024-02-28T00:45:50;46.20;;;24.95;;
29214;SDS011;16252;49.816;7.964;2024-02-28T00:48:15;43.50;;;23.90;;
29214;SDS011;16252;49.816;7.964;2024-02-28T00:50:41;43.55;;;23.38;;
29214;SDS011;16252;49.816;7.964;2024-02-28T00:53:06;43.22;;;24.27;;
29214;SDS011;16252;49.816;7.964;2024-02-28T00:55:31;38.05;;;22.23;;
29214;SDS011;16252;49.816;7.964;2024-02-28T00:57:57;42.17;;;24.05;;
29214;SDS011;16252;49.816;7.964;2024-02-28T01:00:22;39.58;;;21.88;;
29214;SDS011;16252;49.816;7.964;2024-02-28T01:02:47;39.53;;;21.98;;
29214;SDS011;16252;49.816;7.964;2024-02-28T01:05:12;41.67;;;23.77;;
29214;SDS011;16252;49.816;7.964;2024-02-28T01:07:38;42.90;;;23.52;;
29214;SDS011;16252;49.816;7.964;2024-02-28T01:10:03;39.63;;;22.52;;
29214;SDS011;16252;49.816;7.964;2024-02-28T01:12:29;38.83;;;22.30;;
29214;SDS011;16252;49.816;7.964;2024-02-28T01:14:54;40.97;;;23.48;;
29214;SDS011;16252;49.816;7.964;2024-02-28T01:17:19;43.30;;;22.85;;
29214;SDS011;16252;49.816;7.964;2024-02-28T01:19:45;38.67;;;21.42;;
29214;SDS011;16252;49.816;7.964;2024-02-28T01:22:10;41.85;;;23.33;;
29214;SDS011;16252;49.816;7.964;2024-02-28T01:24:35;40.47;;;22.35;;
29214;SDS011;16252;49.816;7.964;2024-02-28T01:27:01;37.95;;;22.17;;
29214;SDS011;16252;49.816;7.964;2024-02-28T01:29:27;41.47;;;22.92;;
29214;SDS011;16252;49.816;7.964;2024-02-28T01:31:53;41.88;;;23.67;;
29214;SDS011;16252;49.816;7.964;2024-02-28T01:34:18;39.33;;;21.83;;
29214;SDS011;16252;49.816;7.964;2024-02-28T01:36:43;42.95;;;23.95;;
29214;SDS011;16252;49.816;7.964;2024-02-28T01:39:09;44.70;;;23.33;;
29214;SDS011;16252;49.816;7.964;2024-02-28T01:41:34;40.03;;;21.83;;
29214;SDS011;16252;49.816;7.964;2024-02-28T01:43:59;39.05;;;22.23;;
29214;SDS011;16252;49.816;7.964;2024-02-28T01:46:28;38.60;;;22.45;;
29214;SDS011;16252;49.816;7.964;2024-02-28T01:48:54;39.70;;;21.40;;
29214;SDS011;16252;49.816;7.964;2024-02-28T01:51:21;40.75;;;22.35;;
29214;SDS011;16252;49.816;7.964;2024-02-28T01:53:48;50.13;;;25.73;;
29214;SDS011;16252;49.816;7.964;2024-02-28T01:56:16;49.33;;;26.35;;
29214;SDS011;16252;49.816;7.964;2024-02-28T01:58:42;41.78;;;25.08;;
29214;SDS011;16252;49.816;7.964;2024-02-28T02:01:10;40.05;;;24.05;;
29214;SDS011;16252;49.816;7.964;2024-02-28T02:03:36;41.38;;;22.80;;
29214;SDS011;16252;49.816;7.964;2024-02-28T02:06:02;39.08;;;21.10;;
29214;SDS011;16252;49.816;7.964;2024-02-28T02:08:28;36.47;;;20.23;;
29214;SDS011;16252;49.816;7.964;2024-02-28T02:10:54;37.30;;;21.67;;
29214;SDS011;16252;49.816;7.964;2024-02-28T02:13:19;37.92;;;20.83;;
29214;SDS011;16252;49.816;7.964;2024-02-28T02:15:44;37.78;;;20.70;;
29214;SDS011;16252;49.816;7.964;2024-02-28T02:18:10;35.50;;;19.98;;
29214;SDS011;16252;49.816;7.964;2024-02-28T02:20:36;36.83;;;20.65;;
29214;SDS011;16252;49.816;7.964;2024-02-28T02:23:05;37.90;;;21.08;;
29214;SDS011;16252;49.816;7.964;2024-02-28T02:25:31;37.58;;;20.98;;
29214;SDS011;16252;49.816;7.964;2024-02-28T02:27:56;39.03;;;20.52;;
29214;SDS011;16252;49.816;7.964;2024-02-28T02:30:21;37.47;;;20.25;;
29214;SDS011;16252;49.816;7.964;2024-02-28T02:32:47;37.33;;;20.23;;
29214;SDS011;16252;49.816;7.964;2024-02-28T02:35:12;33.38;;;19.55;;
29214;SDS011;16252;49.816;7.964;2024-02-28T02:37:40;33.55;;;18.80;;
29214;SDS011;16252;49.816;7.964;2024-02-28T02:40:09;37.17;;;20.02;;
29214;SDS011;16252;49.816;7.964;2024-02-28T02:42:35;33.05;;;18.58;;
29214;SDS011;16252;49.816;7.964;2024-02-28T02:45:00;33.22;;;18.38;;
29214;SDS011;16252;49.816;7.964;2024-02-28T02:47:26;35.83;;;18.65;;
29214;SDS011;16252;49.816;7.964;2024-02-28T02:49:51;33.20;;;18.33;;
29214;SDS011;16252;49.816;7.964;2024-02-28T02:52:16;34.92;;;18.45;;
29214;SDS011;16252;49.816;7.964;2024-02-28T02:54:41;35.63;;;19.13;;
29214;SDS011;16252;49.816;7.964;2024-02-28T02:57:07;30.80;;;17.88;;
29214;SDS011;16252;49.816;7.964;2024-02-28T02:59:32;36.10;;;19.38;;
29214;SDS011;16252;49.816;7.964;2024-02-28T03:01:57;35.10;;;18.95;;
29214;SDS011;16252;49.816;7.964;2024-02-28T03:04:23;33.13;;;16.70;;
29214;SDS011;16252;49.816;7.964;2024-02-28T03:06:48;35.78;;;19.63;;
29214;SDS011;16252;49.816;7.964;2024-02-28T03:09:13;35.25;;;18.85;;
29214;SDS011;16252;49.816;7.964;2024-02-28T03:11:38;34.70;;;18.25;;
29214;SDS011;16252;49.816;7.964;2024-02-28T03:14:04;32.45;;;18.48;;
29214;SDS011;16252;49.816;7.964;2024-02-28T03:16:29;29.55;;;17.92;;
29214;SDS011;16252;49.816;7.964;2024-02-28T03:18:54;33.40;;;18.23;;
29214;SDS011;16252;49.816;7.964;2024-02-28T03:21:20;27.90;;;16.27;;
29214;SDS011;16252;49.816;7.964;2024-02-28T03:23:46;32.72;;;16.75;;
29214;SDS011;16252;49.816;7.964;2024-02-28T03:26:11;32.67;;;17.33;;
29214;SDS011;16252;49.816;7.964;2024-02-28T03:28:36;29.55;;;16.48;;
29214;SDS011;16252;49.816;7.964;2024-02-28T03:31:02;32.90;;;16.98;;
29214;SDS011;16252;49.816;7.964;2024-02-28T03:33:27;31.75;;;16.38;;
29214;SDS011;16252;49.816;7.964;2024-02-28T03:35:52;30.20;;;15.35;;
29214;SDS011;16252;49.816;7.964;2024-02-28T03:38:18;28.15;;;16.48;;
29214;SDS011;16252;49.816;7.964;2024-02-28T03:40:43;28.92;;;15.52;;
29214;SDS011;16252;49.816;7.964;2024-02-28T03:43:08;28.38;;;16.45;;
29214;SDS011;16252;49.816;7.964;2024-02-28T03:45:37;27.13;;;15.57;;
29214;SDS011;16252;49.816;7.964;2024-02-28T03:48:03;31.55;;;17.15;;
29214;SDS011;16252;49.816;7.964;2024-02-28T03:50:28;29.10;;;15.88;;
29214;SDS011;16252;49.816;7.964;2024-02-28T03:52:54;27.35;;;16.15;;
29214;SDS011;16252;49.816;7.964;2024-02-28T03:55:19;30.50;;;16.00;;
29214;SDS011;16252;49.816;7.964;2024-02-28T03:57:47;32.90;;;17.00;;
29214;SDS011;16252;49.816;7.964;2024-02-28T04:00:13;29.43;;;15.43;;
29214;SDS011;16252;49.816;7.964;2024-02-28T04:02:39;30.00;;;16.15;;
29214;SDS011;16252;49.816;7.964;2024-02-28T04:05:04;30.08;;;16.38;;
29214;SDS011;16252;49.816;7.964;2024-02-28T04:07:30;29.25;;;16.05;;
29214;SDS011;16252;49.816;7.964;2024-02-28T04:09:55;31.17;;;17.15;;
29214;SDS011;16252;49.816;7.964;2024-02-28T04:12:20;31.88;;;17.25;;
29214;SDS011;16252;49.816;7.964;2024-02-28T04:14:46;28.95;;;16.38;;
29214;SDS011;16252;49.816;7.964;2024-02-28T04:17:11;30.88;;;17.15;;
29214;SDS011;16252;49.816;7.964;2024-02-28T04:19:36;30.50;;;15.02;;
29214;SDS011;16252;49.816;7.964;2024-02-28T04:22:02;28.67;;;15.88;;
29214;SDS011;16252;49.816;7.964;2024-02-28T04:24:28;28.00;;;15.50;;
29214;SDS011;16252;49.816;7.964;2024-02-28T04:26:53;31.40;;;16.25;;
29214;SDS011;16252;49.816;7.964;2024-02-28T04:29:18;28.70;;;15.38;;
29214;SDS011;16252;49.816;7.964;2024-02-28T04:31:44;30.40;;;16.65;;
29214;SDS011;16252;49.816;7.964;2024-02-28T04:34:09;31.15;;;15.88;;
29214;SDS011;16252;49.816;7.964;2024-02-28T04:36:34;31.92;;;16.95;;
29214;SDS011;16252;49.816;7.964;2024-02-28T04:38:59;30.58;;;16.98;;
29214;SDS011;16252;49.816;7.964;2024-02-28T04:41:26;31.90;;;16.02;;
29214;SDS011;16252;49.816;7.964;2024-02-28T04:43:51;31.77;;;17.45;;
29214;SDS011;16252;49.816;7.964;2024-02-28T04:46:17;32.40;;;17.20;;
29214;SDS011;16252;49.816;7.964;2024-02-28T04:48:42;31.10;;;17.02;;
29214;SDS011;16252;49.816;7.964;2024-02-28T04:51:08;30.83;;;16.58;;
29214;SDS011;16252;49.816;7.964;2024-02-28T04:53:33;32.33;;;16.42;;
29214;SDS011;16252;49.816;7.964;2024-02-28T04:55:59;31.13;;;16.73;;
29214;SDS011;16252;49.816;7.964;2024-02-28T04:58:24;31.50;;;17.52;;
29214;SDS011;16252;49.816;7.964;2024-02-28T05:00:50;30.40;;;16.20;;
29214;SDS011;16252;49.816;7.964;2024-02-28T05:03:15;31.88;;;16.88;;
29214;SDS011;16252;49.816;7.964;2024-02-28T05:05:41;29.80;;;16.45;;
29214;SDS011;16252;49.816;7.964;2024-02-28T05:08:06;27.60;;;15.93;;
29214;SDS011;16252;49.816;7.964;2024-02-28T05:10:31;31.10;;;17.80;;
29214;SDS011;16252;49.816;7.964;2024-02-28T05:12:59;31.25;;;17.50;;
29214;SDS011;16252;49.816;7.964;2024-02-28T05:15:24;30.73;;;15.95;;
29214;SDS011;16252;49.816;7.964;2024-02-28T05:17:50;28.13;;;16.00;;
29214;SDS011;16252;49.816;7.964;2024-02-28T05:20:16;29.98;;;16.50;;
29214;SDS011;16252;49.816;7.964;2024-02-28T05:22:41;30.38;;;16.35;;
29214;SDS011;16252;49.816;7.964;2024-02-28T05:25:07;31.65;;;16.70;;
29214;SDS011;16252;49.816;7.964;2024-02-28T05:27:33;26.48;;;15.18;;
29214;SDS011;16252;49.816;7.964;2024-02-28T05:29:58;30.13;;;16.45;;
29214;SDS011;16252;49.816;7.964;2024-02-28T05:32:24;30.95;;;16.23;;
29214;SDS011;16252;49.816;7.964;2024-02-28T05:34:50;31.77;;;16.27;;
29214;SDS011;16252;49.816;7.964;2024-02-28T05:37:16;31.75;;;16.80;;
29214;SDS011;16252;49.816;7.964;2024-02-28T05:39:41;29.30;;;17.02;;
29214;SDS011;16252;49.816;7.964;2024-02-28T05:42:06;29.48;;;16.40;;
29214;SDS011;16252;49.816;7.964;2024-02-28T05:44:32;30.13;;;16.45;;
29214;SDS011;16252;49.816;7.964;2024-02-28T05:46:59;31.88;;;16.23;;
29214;SDS011;16252;49.816;7.964;2024-02-28T05:49:25;34.70;;;18.05;;
29214;SDS011;16252;49.816;7.964;2024-02-28T05:51:50;30.10;;;16.45;;
29214;SDS011;16252;49.816;7.964;2024-02-28T05:54:16;31.10;;;16.85;;
29214;SDS011;16252;49.816;7.964;2024-02-28T05:56:41;27.70;;;16.10;;
29214;SDS011;16252;49.816;7.964;2024-02-28T05:59:06;30.27;;;16.95;;
29214;SDS011;16252;49.816;7.964;2024-02-28T06:01:32;31.00;;;16.98;;
29214;SDS011;16252;49.816;7.964;2024-02-28T06:03:57;31.27;;;17.10;;
29214;SDS011;16252;49.816;7.964;2024-02-28T06:06:22;32.08;;;16.73;;
29214;SDS011;16252;49.816;7.964;2024-02-28T06:08:47;29.30;;;17.08;;
29214;SDS011;16252;49.816;7.964;2024-02-28T06:11:13;32.70;;;17.45;;
29214;SDS011;16252;49.816;7.964;2024-02-28T06:13:40;31.50;;;16.73;;
29214;SDS011;16252;49.816;7.964;2024-02-28T06:16:06;31.90;;;17.00;;
29214;SDS011;16252;49.816;7.964;2024-02-28T06:18:31;31.17;;;16.90;;
29214;SDS011;16252;49.816;7.964;2024-02-28T06:20:58;31.38;;;16.50;;
29214;SDS011;16252;49.816;7.964;2024-02-28T06:23:24;34.53;;;18.42;;
29214;SDS011;16252;49.816;7.964;2024-02-28T06:25:50;33.50;;;17.17;;
29214;SDS011;16252;49.816;7.964;2024-02-28T06:28:16;33.10;;;17.02;;
29214;SDS011;16252;49.816;7.964;2024-02-28T06:30:42;32.42;;;17.05;;
29214;SDS011;16252;49.816;7.964;2024-02-28T06:33:09;34.38;;;17.98;;
29214;SDS011;16252;49.816;7.964;2024-02-28T06:35:34;32.50;;;17.17;;
29214;SDS011;16252;49.816;7.964;2024-02-28T06:38:00;30.52;;;16.88;;
29214;SDS011;16252;49.816;7.964;2024-02-28T06:40:26;33.67;;;17.02;;
29214;SDS011;16252;49.816;7.964;2024-02-28T06:42:51;31.35;;;16.10;;
29214;SDS011;16252;49.816;7.964;2024-02-28T06:45:16;28.58;;;15.70;;
29214;SDS011;16252;49.816;7.964;2024-02-28T06:47:42;29.55;;;15.60;;
29214;SDS011;16252;49.816;7.964;2024-02-28T06:50:10;30.02;;;15.30;;
29214;SDS011;16252;49.816;7.964;2024-02-28T06:52:35;30.50;;;15.65;;
29214;SDS011;16252;49.816;7.964;2024-02-28T06:55:00;31.98;;;17.23;;
29214;SDS011;16252;49.816;7.964;2024-02-28T06:57:28;29.17;;;15.50;;
29214;SDS011;16252;49.816;7.964;2024-02-28T06:59:53;29.77;;;16.23;;
29214;SDS011;16252;49.816;7.964;2024-02-28T07:02:19;31.98;;;18.02;;
29214;SDS011;16252;49.816;7.964;2024-02-28T07:04:44;31.55;;;17.90;;
29214;SDS011;16252;49.816;7.964;2024-02-28T07:07:09;33.83;;;17.35;;
29214;SDS011;16252;49.816;7.964;2024-02-28T07:09:37;32.42;;;17.45;;
29214;SDS011;16252;49.816;7.964;2024-02-28T07:12:03;31.38;;;17.17;;
29214;SDS011;16252;49.816;7.964;2024-02-28T07:14:28;28.55;;;17.25;;
29214;SDS011;16252;49.816;7.964;2024-02-28T07:16:54;32.30;;;17.30;;
29214;SDS011;16252;49.816;7.964;2024-02-28T07:19:19;33.70;;;17.25;;
29214;SDS011;16252;49.816;7.964;2024-02-28T07:21:45;32.47;;;17.98;;
29214;SDS011;16252;49.816;7.964;2024-02-28T07:24:10;33.17;;;17.70;;
29214;SDS011;16252;49.816;7.964;2024-02-28T07:26:35;36.20;;;18.98;;
29214;SDS011;16252;49.816;7.964;2024-02-28T07:29:02;27.85;;;16.35;;
29214;SDS011;16252;49.816;7.964;2024-02-28T07:31:27;33.60;;;18.15;;
29214;SDS011;16252;49.816;7.964;2024-02-28T07:33:52;30.52;;;16.77;;
29214;SDS011;16252;49.816;7.964;2024-02-28T07:36:18;32.95;;;17.48;;
29214;SDS011;16252;49.816;7.964;2024-02-28T07:38:44;33.58;;;18.63;;
29214;SDS011;16252;49.816;7.964;2024-02-28T07:41:10;38.20;;;19.13;;
29214;SDS011;16252;49.816;7.964;2024-02-28T08:37:58;27.02;;;15.20;;
29214;SDS011;16252;49.816;7.964;2024-02-28T08:40:23;28.70;;;16.48;;
29214;SDS011;16252;49.816;7.964;2024-02-28T08:42:48;38.70;;;16.63;;
29214;SDS011;16252;49.816;7.964;2024-02-28T08:45:17;27.63;;;14.30;;
29214;SDS011;16252;49.816;7.964;2024-02-28T08:47:43;29.65;;;16.30;;
29214;SDS011;16252;49.816;7.964;2024-02-28T08:50:09;30.60;;;17.15;;
29214;SDS011;16252;49.816;7.964;2024-02-28T08:52:35;29.00;;;16.75;;
29214;SDS011;16252;49.816;7.964;2024-02-28T08:55:00;31.40;;;17.08;;
29214;SDS011;16252;49.816;7.964;2024-02-28T08:57:25;30.42;;;16.60;;
29214;SDS011;16252;49.816;7.964;2024-02-28T08:59:51;30.05;;;16.75;;
29214;SDS011;16252;49.816;7.964;2024-02-28T09:02:16;32.65;;;18.33;;
29214;SDS011;16252;49.816;7.964;2024-02-28T09:04:41;34.88;;;18.05;;
29214;SDS011;16252;49.816;7.964;2024-02-28T09:07:07;30.58;;;16.98;;
29214;SDS011;16252;49.816;7.964;2024-02-28T09:09:32;31.48;;;16.88;;
29214;SDS011;16252;49.816;7.964;2024-02-28T09:14:28;25.73;;;12.68;;
29214;SDS011;16252;49.816;7.964;2024-02-28T09:16:53;26.63;;;14.40;;
29214;SDS011;16252;49.816;7.964;2024-02-28T09:19:21;26.13;;;14.50;;
29214;SDS011;16252;49.816;7.964;2024-02-28T09:21:46;30.35;;;15.63;;
29214;SDS011;16252;49.816;7.964;2024-02-28T09:24:12;33.75;;;17.98;;
29214;SDS011;16252;49.816;7.964;2024-02-28T09:26:38;36.97;;;18.67;;
29214;SDS011;16252;49.816;7.964;2024-02-28T09:29:04;34.15;;;18.00;;
29214;SDS011;16252;49.816;7.964;2024-02-28T09:31:29;32.95;;;18.33;;
29214;SDS011;16252;49.816;7.964;2024-02-28T09:33:54;34.75;;;18.02;;
29214;SDS011;16252;49.816;7.964;2024-02-28T09:36:23;35.53;;;18.52;;
29214;SDS011;16252;49.816;7.964;2024-02-28T09:38:48;28.60;;;16.20;;
29214;SDS011;16252;49.816;7.964;2024-02-28T09:41:16;34.40;;;18.25;;
29214;SDS011;16252;49.816;7.964;2024-02-28T09:43:42;32.42;;;17.73;;
29214;SDS011;16252;49.816;7.964;2024-02-28T09:46:09;35.78;;;18.77;;
29214;SDS011;16252;49.816;7.964;2024-02-28T09:48:38;34.30;;;17.88;;
29214;SDS011;16252;49.816;7.964;2024-02-28T09:51:05;32.72;;;18.02;;
29214;SDS011;16252;49.816;7.964;2024-02-28T09:53:30;30.40;;;16.42;;
29214;SDS011;16252;49.816;7.964;2024-02-28T09:55:56;32.25;;;17.42;;
29214;SDS011;16252;49.816;7.964;2024-02-28T09:58:21;32.25;;;17.38;;
29214;SDS011;16252;49.816;7.964;2024-02-28T10:00:48;38.08;;;18.90;;
29214;SDS011;16252;49.816;7.964;2024-02-28T10:03:14;30.80;;;16.85;;
29214;SDS011;16252;49.816;7.964;2024-02-28T10:05:44;32.92;;;17.58;;
29214;SDS011;16252;49.816;7.964;2024-02-28T10:08:11;32.20;;;16.65;;
29214;SDS011;16252;49.816;7.964;2024-02-28T10:10:37;28.20;;;15.40;;
29214;SDS011;16252;49.816;7.964;2024-02-28T10:13:03;30.17;;;16.77;;
29214;SDS011;16252;49.816;7.964;2024-02-28T10:15:28;29.05;;;15.70;;
29214;SDS011;16252;49.816;7.964;2024-02-28T10:17:54;31.60;;;17.77;;
29214;SDS011;16252;49.816;7.964;2024-02-28T10:20:19;29.48;;;16.30;;
29214;SDS011;16252;49.816;7.964;2024-02-28T10:22:45;29.38;;;16.33;;
29214;SDS011;16252;49.816;7.964;2024-02-28T10:25:10;29.08;;;16.02;;
29214;SDS011;16252;49.816;7.964;2024-02-28T10:27:35;28.70;;;16.45;;
29214;SDS011;16252;49.816;7.964;2024-02-28T10:30:01;27.25;;;15.77;;
29214;SDS011;16252;49.816;7.964;2024-02-28T10:32:32;25.40;;;14.30;;
29214;SDS011;16252;49.816;7.964;2024-02-28T10:35:00;27.35;;;15.30;;
29214;SDS011;16252;49.816;7.964;2024-02-28T10:37:26;27.63;;;15.48;;
29214;SDS011;16252;49.816;7.964;2024-02-28T10:39:55;28.77;;;15.50;;
29214;SDS011;16252;49.816;7.964;2024-02-28T10:42:22;24.00;;;14.57;;
29214;SDS011;16252;49.816;7.964;2024-02-28T10:44:51;22.75;;;14.68;;
29214;SDS011;16252;49.816;7.964;2024-02-28T10:47:18;22.80;;;14.35;;
29214;SDS011;16252;49.816;7.964;2024-02-28T10:49:44;22.17;;;14.43;;
29214;SDS011;16252;49.816;7.964;2024-02-28T10:52:10;19.80;;;13.50;;
29214;SDS011;16252;49.816;7.964;2024-02-28T10:54:38;20.52;;;14.63;;
29214;SDS011;16252;49.816;7.964;2024-02-28T10:57:07;22.08;;;14.43;;
29214;SDS011;16252;49.816;7.964;2024-02-28T10:59:33;20.05;;;14.10;;
29214;SDS011;16252;49.816;7.964;2024-02-28T11:02:01;22.63;;;14.88;;
29214;SDS011;16252;49.816;7.964;2024-02-28T11:04:28;19.98;;;13.68;;
29214;SDS011;16252;49.816;7.964;2024-02-28T11:06:54;19.17;;;13.63;;
29214;SDS011;16252;49.816;7.964;2024-02-28T11:09:21;18.85;;;13.23;;
29214;SDS011;16252;49.816;7.964;2024-02-28T11:11:48;17.75;;;12.98;;
29214;SDS011;16252;49.816;7.964;2024-02-28T11:14:15;17.77;;;13.10;;
29214;SDS011;16252;49.816;7.964;2024-02-28T11:16:41;17.95;;;13.18;;
29214;SDS011;16252;49.816;7.964;2024-02-28T11:19:18;19.38;;;13.50;;
29214;SDS011;16252;49.816;7.964;2024-02-28T11:21:53;18.13;;;13.10;;
29214;SDS011;16252;49.816;7.964;2024-02-28T11:24:22;16.85;;;12.73;;
29214;SDS011;16252;49.816;7.964;2024-02-28T11:26:54;18.02;;;12.63;;
29214;SDS011;16252;49.816;7.964;2024-02-28T11:29:26;17.67;;;13.15;;
29214;SDS011;16252;49.816;7.964;2024-02-28T11:31:53;17.52;;;12.70;;
29214;SDS011;16252;49.816;7.964;2024-02-28T11:34:19;16.45;;;11.98;;
29214;SDS011;16252;49.816;7.964;2024-02-28T11:36:48;17.33;;;12.57;;
29214;SDS011;16252;49.816;7.964;2024-02-28T11:39:14;20.90;;;14.13;;
29214;SDS011;16252;49.816;7.964;2024-02-28T11:41:40;19.05;;;12.77;;
29214;SDS011;16252;49.816;7.964;2024-02-28T11:44:06;20.85;;;14.20;;
29214;SDS011;16252;49.816;7.964;2024-02-28T11:46:32;20.42;;;13.63;;
29214;SDS011;16252;49.816;7.964;2024-02-28T11:48:57;21.13;;;13.68;;
29214;SDS011;16252;49.816;7.964;2024-02-28T11:51:23;21.17;;;13.35;;
29214;SDS011;16252;49.816;7.964;2024-02-28T11:53:49;20.20;;;13.35;;
29214;SDS011;16252;49.816;7.964;2024-02-28T11:56:14;21.30;;;13.80;;
29214;SDS011;16252;49.816;7.964;2024-02-28T11:58:52;19.90;;;12.95;;
29214;SDS011;16252;49.816;7.964;2024-02-28T12:01:19;20.30;;;12.45;;
29214;SDS011;16252;49.816;7.964;2024-02-28T12:03:56;17.65;;;11.65;;
29214;SDS011;16252;49.816;7.964;2024-02-28T12:06:22;23.15;;;12.38;;
29214;SDS011;16252;49.816;7.964;2024-02-28T12:08:48;19.77;;;12.27;;
29214;SDS011;16252;49.816;7.964;2024-02-28T12:11:13;22.52;;;13.30;;
29214;SDS011;16252;49.816;7.964;2024-02-28T12:13:39;22.60;;;14.48;;
29214;SDS011;16252;49.816;7.964;2024-02-28T12:16:04;21.20;;;13.25;;
29214;SDS011;16252;49.816;7.964;2024-02-28T12:18:29;19.23;;;12.40;;
29214;SDS011;16252;49.816;7.964;2024-02-28T12:20:55;21.48;;;13.57;;
29214;SDS011;16252;49.816;7.964;2024-02-28T12:23:20;21.05;;;13.45;;
29214;SDS011;16252;49.816;7.964;2024-02-28T12:25:46;19.95;;;12.68;;
29214;SDS011;16252;49.816;7.964;2024-02-28T12:28:11;18.45;;;11.07;;
29214;SDS011;16252;49.816;7.964;2024-02-28T12:30:41;17.80;;;10.82;;
29214;SDS011;16252;49.816;7.964;2024-02-28T12:33:07;15.50;;;9.90;;
29214;SDS011;16252;49.816;7.964;2024-02-28T12:35:33;14.38;;;9.30;;
29214;SDS011;16252;49.816;7.964;2024-02-28T12:37:58;15.32;;;9.90;;
29214;SDS011;16252;49.816;7.964;2024-02-28T12:40:24;16.10;;;9.82;;
29214;SDS011;16252;49.816;7.964;2024-02-28T12:42:50;16.35;;;10.25;;
29214;SDS011;16252;49.816;7.964;2024-02-28T12:45:15;17.27;;;10.27;;
29214;SDS011;16252;49.816;7.964;2024-02-28T12:47:41;13.30;;;8.82;;
29214;SDS011;16252;49.816;7.964;2024-02-28T12:50:06;13.75;;;8.68;;
29214;SDS011;16252;49.816;7.964;2024-02-28T12:52:33;14.90;;;9.52;;
29214;SDS011;16252;49.816;7.964;2024-02-28T12:54:59;15.18;;;8.75;;
29214;SDS011;16252;49.816;7.964;2024-02-28T12:57:24;15.15;;;9.57;;
29214;SDS011;16252;49.816;7.964;2024-02-28T12:59:49;16.85;;;10.05;;
29214;SDS011;16252;49.816;7.964;2024-02-28T13:02:14;19.30;;;10.30;;
29214;SDS011;16252;49.816;7.964;2024-02-28T13:04:40;15.30;;;9.38;;
29214;SDS011;16252;49.816;7.964;2024-02-28T13:07:06;15.98;;;9.50;;
29214;SDS011;16252;49.816;7.964;2024-02-28T13:09:31;14.13;;;9.13;;
29214;SDS011;16252;49.816;7.964;2024-02-28T13:11:56;16.02;;;9.95;;
29214;SDS011;16252;49.816;7.964;2024-02-28T13:14:22;16.88;;;10.52;;
29214;SDS011;16252;49.816;7.964;2024-02-28T13:16:47;16.48;;;9.93;;
29214;SDS011;16252;49.816;7.964;2024-02-28T13:19:13;15.25;;;8.93;;
29214;SDS011;16252;49.816;7.964;2024-02-28T13:21:39;16.50;;;9.27;;
29214;SDS011;16252;49.816;7.964;2024-02-28T14:10:30;11.60;;;7.53;;
29214;SDS011;16252;49.816;7.964;2024-02-28T14:12:56;12.48;;;7.72;;
29214;SDS011;16252;49.816;7.964;2024-02-28T14:15:21;11.27;;;7.90;;
29214;SDS011;16252;49.816;7.964;2024-02-28T14:17:50;11.95;;;7.32;;
29214;SDS011;16252;49.816;7.964;2024-02-28T14:20:16;11.15;;;7.35;;
29214;SDS011;16252;49.816;7.964;2024-02-28T14:22:42;9.95;;;6.30;;
29214;SDS011;16252;49.816;7.964;2024-02-28T14:25:17;11.05;;;6.35;;
29214;SDS011;16252;49.816;7.964;2024-02-28T14:27:46;10.57;;;6.50;;
29214;SDS011;16252;49.816;7.964;2024-02-28T14:30:12;9.38;;;5.82;;
29214;SDS011;16252;49.816;7.964;2024-02-28T14:32:39;7.75;;;5.22;;
29214;SDS011;16252;49.816;7.964;2024-02-28T14:35:05;9.02;;;5.18;;
29214;SDS011;16252;49.816;7.964;2024-02-28T14:37:32;8.93;;;5.55;;
29214;SDS011;16252;49.816;7.964;2024-02-28T14:39:58;8.25;;;5.68;;
29214;SDS011;16252;49.816;7.964;2024-02-28T14:42:25;8.38;;;5.63;;
29214;SDS011;16252;49.816;7.964;2024-02-28T14:44:50;8.85;;;6.00;;
29214;SDS011;16252;49.816;7.964;2024-02-28T14:47:16;10.57;;;5.95;;
29214;SDS011;16252;49.816;7.964;2024-02-28T14:49:41;9.40;;;5.82;;
29214;SDS011;16252;49.816;7.964;2024-02-28T14:52:07;10.70;;;6.93;;
29214;SDS011;16252;49.816;7.964;2024-02-28T14:54:33;9.68;;;6.75;;
29214;SDS011;16252;49.816;7.964;2024-02-28T14:56:58;11.60;;;6.97;;
29214;SDS011;16252;49.816;7.964;2024-02-28T14:59:23;13.10;;;6.75;;
29214;SDS011;16252;49.816;7.964;2024-02-28T15:01:49;11.95;;;7.32;;
29214;SDS011;16252;49.816;7.964;2024-02-28T15:04:15;10.55;;;6.38;;
29214;SDS011;16252;49.816;7.964;2024-02-28T15:06:40;12.00;;;7.18;;
29214;SDS011;16252;49.816;7.964;2024-02-28T15:09:06;11.32;;;7.38;;
29214;SDS011;16252;49.816;7.964;2024-02-28T15:11:31;10.68;;;7.05;;
29214;SDS011;16252;49.816;7.964;2024-02-28T15:13:57;9.77;;;6.28;;
29214;SDS011;16252;49.816;7.964;2024-02-28T15:16:22;8.77;;;5.50;;
29214;SDS011;16252;49.816;7.964;2024-02-28T15:18:47;9.93;;;5.97;;
29214;SDS011;16252;49.816;7.964;2024-02-28T15:21:13;8.20;;;5.22;;
29214;SDS011;16252;49.816;7.964;2024-02-28T15:23:38;9.65;;;5.95;;
29214;SDS011;16252;49.816;7.964;2024-02-28T15:26:03;9.20;;;6.07;;
29214;SDS011;16252;49.816;7.964;2024-02-28T15:28:29;8.52;;;5.38;;
29214;SDS011;16252;49.816;7.964;2024-02-28T15:30:55;7.85;;;5.13;;
29214;SDS011;16252;49.816;7.964;2024-02-28T15:33:21;10.05;;;5.75;;
29214;SDS011;16252;49.816;7.964;2024-02-28T15:35:46;9.48;;;5.70;;
29214;SDS011;16252;49.816;7.964;2024-02-28T15:38:11;9.02;;;5.25;;
29214;SDS011;16252;49.816;7.964;2024-02-28T15:40:38;12.75;;;5.45;;
29214;SDS011;16252;49.816;7.964;2024-02-28T15:43:04;7.72;;;4.95;;
29214;SDS011;16252;49.816;7.964;2024-02-28T15:45:29;6.63;;;4.32;;
29214;SDS011;16252;49.816;7.964;2024-02-28T15:47:55;7.90;;;5.00;;
29214;SDS011;16252;49.816;7.964;2024-02-28T15:50:20;10.70;;;5.45;;
29214;SDS011;16252;49.816;7.964;2024-02-28T15:52:45;10.25;;;5.85;;
29214;SDS011;16252;49.816;7.964;2024-02-28T15:55:11;8.75;;;5.20;;
29214;SDS011;16252;49.816;7.964;2024-02-28T15:57:37;7.75;;;5.35;;
29214;SDS011;16252;49.816;7.964;2024-02-28T16:00:04;8.60;;;5.40;;
29214;SDS011;16252;49.816;7.964;2024-02-28T16:02:31;9.27;;;5.20;;